createdAt,value
2022-09-06T00:01:23.325Z,101008.06
2022-09-06T00:03:50.897Z,101000.09
2022-09-06T00:06:19.678Z,101000.13
2022-09-06T00:08:47.946Z,101004.66
2022-09-06T00:11:16.000Z,100999.38
2022-09-06T00:13:42.548Z,101005.69
2022-09-06T00:16:12.044Z,100996.78
2022-09-06T00:18:39.148Z,101011.13
2022-09-06T00:21:14.929Z,100998.66
2022-09-06T00:23:41.597Z,100999.59
2022-09-06T00:26:08.069Z,100996.06
2022-09-06T00:28:34.635Z,101005.94
2022-09-06T00:31:09.541Z,101000.66
2022-09-06T00:33:36.226Z,101001.56
2022-09-06T00:36:03.052Z,100998.03
2022-09-06T00:38:29.694Z,100993.63
2022-09-06T00:40:56.387Z,100993.63
2022-09-06T00:43:23.365Z,100999.06
2022-09-06T00:45:50.546Z,100999.97
2022-09-06T00:48:17.642Z,100999.13
2022-09-06T00:50:47.583Z,101000.97
2022-09-06T00:53:14.286Z,101007.25
2022-09-06T00:55:43.013Z,101011.69
2022-09-06T00:58:10.494Z,101009.06
2022-09-06T01:00:37.491Z,101002.78
2022-09-06T01:03:06.053Z,101004.63
2022-09-06T01:06:03.932Z,101000.22
2022-09-06T01:08:42.571Z,100998.53
2022-09-06T01:11:08.987Z,100991.44
2022-09-06T01:14:00.075Z,100998.66
2022-09-06T01:16:52.380Z,100987.94
2022-09-06T01:19:40.614Z,100990.66
2022-09-06T01:22:31.200Z,100984.41
2022-09-06T01:25:03.607Z,100985.31
2022-09-06T01:28:08.136Z,100982.66
2022-09-06T01:30:38.407Z,100978.22
2022-09-06T01:33:19.398Z,100964.81
2022-09-06T01:35:52.967Z,100972.81
2022-09-06T01:38:19.557Z,100969.25
2022-09-06T01:40:46.037Z,100970.16
2022-09-06T01:43:18.640Z,100962.97
2022-09-06T01:46:01.607Z,100956.75
2022-09-06T01:49:19.050Z,100955.88
2022-09-06T01:52:17.583Z,100957.66
2022-09-06T01:54:55.713Z,100958.56
2022-09-06T01:57:41.516Z,100962.16
2022-09-06T02:00:11.847Z,100953.25
2022-09-06T02:03:18.284Z,100954.13
2022-09-06T02:05:52.334Z,100953.28
2022-09-06T02:08:44.834Z,100950.63
2022-09-06T02:11:14.540Z,100949.81
2022-09-06T02:13:54.207Z,100947.16
2022-09-06T02:16:25.700Z,100946.28
2022-09-06T02:19:08.524Z,100943.72
2022-09-06T02:21:40.620Z,100944.63
2022-09-06T02:24:12.170Z,100953.59
2022-09-06T02:26:42.559Z,100954.53
2022-09-06T02:29:09.576Z,100958.09
2022-09-06T02:31:40.209Z,100969.72
2022-09-06T02:34:07.753Z,100961.69
2022-09-06T02:36:37.329Z,100950.13
2022-09-06T02:39:04.972Z,100946.56
2022-09-06T02:41:32.728Z,100950.16
2022-09-06T02:43:59.339Z,100956.41
2022-09-06T02:46:25.916Z,100943.94
2022-09-06T02:48:52.494Z,100946.63
2022-09-06T02:51:19.139Z,100952.91
2022-09-06T02:53:45.717Z,100962.72
2022-09-06T02:56:12.337Z,100961.81
2022-09-06T02:58:39.959Z,100960.00
2022-09-06T03:01:06.805Z,100951.97
2022-09-06T03:03:34.720Z,100951.09
2022-09-06T03:06:01.559Z,100945.75
2022-09-06T03:08:33.327Z,100947.50
2022-09-06T03:11:00.970Z,100943.09
2022-09-06T03:13:27.776Z,100938.59
2022-09-06T03:15:57.417Z,100923.44
2022-09-06T03:18:25.394Z,100921.66
2022-09-06T03:20:53.246Z,100925.25
2022-09-06T03:23:21.162Z,100929.72
2022-09-06T03:25:47.784Z,100927.97
2022-09-06T03:28:14.407Z,100940.47
2022-09-06T03:30:41.239Z,100936.03
2022-09-06T03:33:07.792Z,100936.94
2022-09-06T03:35:34.277Z,100942.28
2022-09-06T03:38:00.932Z,100932.47
2022-09-06T03:40:27.589Z,100921.78
2022-09-06T03:42:54.311Z,100924.50
2022-09-06T03:45:20.801Z,100920.09
2022-09-06T03:47:47.316Z,100915.63
2022-09-06T03:50:13.869Z,100918.34
2022-09-06T03:52:40.645Z,100922.81
2022-09-06T03:55:07.765Z,100917.50
2022-09-06T03:57:34.386Z,100917.50
2022-09-06T04:00:01.061Z,100916.63
2022-09-06T04:02:38.060Z,100921.97
2022-09-06T04:05:04.925Z,100914.88
2022-09-06T04:07:31.445Z,100910.44
2022-09-06T04:09:58.034Z,100915.78
2022-09-06T04:12:24.679Z,100915.81
2022-09-06T04:14:51.200Z,100921.19
2022-09-06T04:17:17.812Z,100924.75
2022-09-06T04:19:44.277Z,100911.41
2022-09-06T04:22:10.792Z,100910.53
2022-09-06T04:24:37.314Z,100899.84
2022-09-06T04:27:04.000Z,100899.84
2022-09-06T04:29:30.538Z,100901.63
2022-09-06T04:31:57.157Z,100903.38
2022-09-06T04:34:23.709Z,100912.34
2022-09-06T04:36:50.205Z,100911.41
2022-09-06T04:39:16.950Z,100914.13
2022-09-06T04:41:43.773Z,100921.25
2022-09-06T04:44:10.569Z,100923.03
2022-09-06T04:46:37.122Z,100915.94
2022-09-06T04:49:03.632Z,100915.97
2022-09-06T04:51:31.616Z,100910.63
2022-09-06T04:53:58.211Z,100932.03
2022-09-06T04:56:26.256Z,100934.69
2022-09-06T04:58:54.454Z,100925.78
2022-09-06T05:01:21.487Z,100924.88
2022-09-06T05:03:48.118Z,100927.53
2022-09-06T05:06:21.439Z,100940.03
2022-09-06T05:08:48.522Z,100931.13
2022-09-06T05:11:15.421Z,100943.63
2022-09-06T05:13:42.367Z,100941.84
2022-09-06T05:16:10.136Z,100939.22
2022-09-06T05:18:36.719Z,100939.19
2022-09-06T05:21:03.305Z,100932.97
2022-09-06T05:23:29.819Z,100938.34
2022-09-06T05:25:56.432Z,100930.28
2022-09-06T05:28:23.232Z,100919.59
2022-09-06T05:30:50.172Z,100916.94
2022-09-06T05:33:22.227Z,100929.44
2022-09-06T05:35:49.242Z,100934.78
2022-09-06T05:38:15.801Z,100936.56
2022-09-06T05:40:42.367Z,100937.44
2022-09-06T05:43:08.888Z,100918.72
2022-09-06T05:45:35.420Z,100928.50
2022-09-06T05:48:02.196Z,100924.03
2022-09-06T05:50:28.825Z,100930.28
2022-09-06T05:52:55.352Z,100929.34
2022-09-06T05:55:21.865Z,100920.41
2022-09-06T05:57:48.429Z,100916.84
2022-09-06T06:00:15.110Z,100921.25
2022-09-06T06:02:42.008Z,100912.34
2022-09-06T06:05:08.806Z,100909.63
2022-09-06T06:07:35.479Z,100912.28
2022-09-06T06:10:02.026Z,100910.50
2022-09-06T06:12:28.621Z,100909.56
2022-09-06T06:14:55.209Z,100905.94
2022-09-06T06:17:21.797Z,100912.16
2022-09-06T06:19:48.593Z,100911.19
2022-09-06T06:22:15.107Z,100912.06
2022-09-06T06:24:41.677Z,100918.28
2022-09-06T06:27:08.204Z,100913.81
2022-09-06T06:29:34.873Z,100912.00
2022-09-06T06:32:01.549Z,100909.28
2022-09-06T06:34:28.071Z,100916.38
2022-09-06T06:36:54.573Z,100909.16
2022-09-06T06:39:21.129Z,100910.00
2022-09-06T06:41:49.663Z,100917.03
2022-09-06T06:44:41.470Z,100908.91
2022-09-06T06:47:08.021Z,100904.41
2022-09-06T06:49:34.518Z,100896.34
2022-09-06T06:52:01.297Z,100910.59
2022-09-06T06:54:27.828Z,100910.50
2022-09-06T06:56:54.363Z,100914.91
2022-09-06T06:59:20.900Z,100917.53
2022-09-06T07:01:47.527Z,100911.19
2022-09-06T07:04:14.256Z,100921.81
2022-09-06T07:12:23.729Z,100920.75
2022-09-06T07:14:50.384Z,100919.81
2022-09-06T07:17:16.870Z,100928.69
2022-09-06T07:22:29.995Z,100926.75
2022-09-06T07:24:56.481Z,100930.25
2022-09-06T07:30:10.442Z,100921.28
2022-09-06T07:32:37.014Z,100919.41
2022-09-06T07:35:03.726Z,100909.47
2022-09-06T07:37:30.202Z,100911.19
2022-09-06T07:39:56.766Z,100915.59
2022-09-06T07:42:23.407Z,100912.03
2022-09-06T07:44:49.921Z,100911.97
2022-09-06T07:53:08.397Z,100911.00
2022-09-06T07:55:37.732Z,100913.59
2022-09-06T07:58:04.341Z,100910.88
2022-09-06T08:00:31.686Z,100904.59
2022-09-06T08:02:58.194Z,100922.41
2022-09-06T08:10:57.971Z,100951.56
2022-09-06T08:13:24.505Z,100943.38
2022-09-06T08:16:08.317Z,100950.34
2022-09-06T08:18:36.233Z,100959.09
2022-09-06T08:21:13.584Z,100955.34
2022-09-06T08:23:44.525Z,100949.78
2022-09-06T08:26:12.034Z,100946.97
2022-09-06T08:28:38.695Z,100940.63
2022-09-06T08:31:13.609Z,100940.44
2022-09-06T08:33:41.487Z,100956.31
2022-09-06T08:36:09.384Z,100970.41
2022-09-06T08:38:36.683Z,100966.56
2022-09-06T08:41:23.216Z,100968.16
2022-09-06T08:46:59.177Z,100973.13
2022-09-06T08:49:29.405Z,100979.28
2022-09-06T08:52:05.265Z,100976.47
2022-09-06T08:54:51.615Z,100970.06
2022-09-06T08:57:40.150Z,100973.53
2022-09-06T09:00:11.251Z,100975.13
2022-09-06T09:02:51.935Z,100964.94
2022-09-06T09:05:29.753Z,100964.72
2022-09-06T09:08:05.504Z,100970.75
2022-09-06T09:10:41.272Z,100962.44
2022-09-06T09:13:09.789Z,100964.16
2022-09-06T09:15:40.451Z,100946.91
2022-09-06T09:18:07.584Z,100949.38
2022-09-06T09:20:34.112Z,100951.97
2022-09-06T09:23:02.021Z,100940.94
2022-09-06T09:25:32.776Z,100929.97
2022-09-06T09:28:00.285Z,100917.19
2022-09-06T09:30:47.783Z,100918.66
2022-09-06T09:33:22.667Z,100911.94
2022-09-06T09:35:49.442Z,100914.25
2022-09-06T09:38:29.602Z,100905.84
2022-09-06T09:41:00.418Z,100903.91
2022-09-06T09:43:32.213Z,100894.06
2022-09-06T09:46:14.441Z,100887.06
2022-09-06T09:48:46.603Z,100889.03
2022-09-06T09:51:25.539Z,100883.03
2022-09-06T09:53:55.072Z,100876.91
2022-09-06T09:56:47.327Z,100862.53
2022-09-06T09:59:27.889Z,100858.78
2022-09-06T10:02:01.437Z,100857.47
2022-09-06T10:07:20.654Z,100848.28
2022-09-06T10:09:49.471Z,100827.06
2022-09-06T10:12:19.113Z,100831.88
2022-09-06T10:14:49.653Z,100835.25
2022-09-06T10:17:37.909Z,100827.06
2022-09-06T10:20:12.621Z,100833.16
2022-09-06T10:22:56.604Z,100830.41
2022-09-06T10:25:43.012Z,100833.84
2022-09-06T10:28:36.931Z,100836.47
2022-09-06T10:31:28.066Z,100833.31
2022-09-06T10:34:13.224Z,100831.19
2022-09-06T10:36:54.753Z,100829.13
2022-09-06T10:39:48.290Z,100828.44
2022-09-06T10:42:44.104Z,100814.47
2022-09-06T10:45:28.914Z,100808.81
2022-09-06T10:48:15.050Z,100799.50
2022-09-06T10:50:48.176Z,100801.91
2022-09-06T10:53:21.651Z,100815.97
2022-09-06T10:55:52.926Z,100810.25
2022-09-06T10:58:28.490Z,100804.09
2022-09-06T11:00:55.268Z,100809.53
2022-09-06T11:06:22.482Z,100813.25
2022-09-06T11:09:00.074Z,100813.25
2022-09-06T11:11:42.332Z,100813.88
2022-09-06T11:14:13.459Z,100812.91
2022-09-06T11:16:57.025Z,100812.66
2022-09-06T11:19:39.527Z,100809.69
2022-09-06T11:22:45.909Z,100815.63
2022-09-06T11:25:21.550Z,100818.88
2022-09-06T11:27:57.831Z,100814.13
2022-09-06T11:30:26.926Z,100816.72
2022-09-06T11:33:13.133Z,100820.09
2022-09-06T11:35:41.475Z,100815.66
2022-09-06T11:38:22.405Z,100811.94
2022-09-06T11:41:00.893Z,100810.78
2022-09-06T11:43:47.774Z,100804.22
2022-09-06T11:46:34.547Z,100810.88
2022-09-06T11:49:02.794Z,100801.63
2022-09-06T11:51:41.271Z,100812.28
2022-09-06T11:54:21.901Z,100814.69
2022-09-06T11:57:10.277Z,100807.13
2022-09-06T12:00:03.597Z,100796.91
2022-09-06T12:02:38.650Z,100800.19
2022-09-06T12:05:07.332Z,100800.84
2022-09-06T12:07:36.318Z,100791.50
2022-09-06T12:10:31.733Z,100783.59
2022-09-06T12:12:58.853Z,100787.44
2022-09-06T12:15:28.149Z,100775.59
2022-09-06T12:17:55.797Z,100774.63
2022-09-06T12:20:53.172Z,100785.47
2022-09-06T12:23:35.021Z,100768.53
2022-09-06T12:26:07.177Z,100776.22
2022-09-06T12:28:41.494Z,100771.22
2022-09-06T12:31:29.599Z,100767.38
2022-09-06T12:33:57.937Z,100761.72
2022-09-06T12:36:30.391Z,100758.78
2022-09-06T12:39:14.459Z,100756.66
2022-09-06T12:41:49.298Z,100737.44
2022-09-06T12:44:17.090Z,100746.09
2022-09-06T12:46:49.858Z,100741.09
2022-09-06T12:49:20.737Z,100734.25
2022-09-06T12:51:48.048Z,100733.66
2022-09-06T12:54:22.008Z,100732.97
2022-09-06T12:56:49.336Z,100737.56
2022-09-06T12:59:19.282Z,100731.38
2022-09-06T13:01:53.192Z,100731.53
2022-09-06T13:04:41.899Z,100732.44
2022-09-06T13:07:17.547Z,100730.63
2022-09-06T13:09:51.904Z,100720.72
2022-09-06T13:12:49.119Z,100723.34
2022-09-06T13:15:31.229Z,100716.84
2022-09-06T13:18:37.506Z,100720.31
2022-09-06T13:21:07.272Z,100719.38
2022-09-06T13:23:45.404Z,100708.53
2022-09-06T13:26:11.889Z,100701.31
2022-09-06T13:28:38.387Z,100704.78
2022-09-06T13:31:11.134Z,100699.28
2022-09-06T13:33:37.996Z,100696.50
2022-09-06T13:36:13.706Z,100700.03
2022-09-06T13:38:45.153Z,100687.34
2022-09-06T13:41:26.994Z,100684.59
2022-09-06T13:44:05.995Z,100685.34
2022-09-06T13:46:33.305Z,100678.94
2022-09-06T13:49:00.391Z,100677.97
2022-09-06T13:51:26.997Z,100684.25
2022-09-06T13:54:12.026Z,100681.56
2022-09-06T13:56:43.867Z,100672.47
2022-09-06T13:59:11.864Z,100674.25
2022-09-06T14:01:40.458Z,100666.88
2022-09-06T14:04:07.529Z,100675.75
2022-09-06T14:06:36.984Z,100676.63
2022-09-06T14:09:08.583Z,100667.56
2022-09-06T14:11:36.590Z,100665.66
2022-09-06T14:14:03.708Z,100666.41
2022-09-06T14:16:30.519Z,100660.84
2022-09-06T14:18:57.931Z,100663.47
2022-09-06T14:21:24.762Z,100662.63
2022-09-06T14:23:52.609Z,100653.53
2022-09-06T14:26:20.934Z,100650.69
2022-09-06T14:28:48.396Z,100646.22
2022-09-06T14:31:20.737Z,100648.88
2022-09-06T14:33:48.187Z,100646.16
2022-09-06T14:36:17.496Z,100647.72
2022-09-06T14:38:45.347Z,100642.31
2022-09-06T14:41:15.826Z,100644.06
2022-09-06T14:43:43.885Z,100634.19
2022-09-06T14:46:13.749Z,100640.41
2022-09-06T14:48:42.511Z,100639.44
2022-09-06T14:51:20.756Z,100635.81
2022-09-06T14:53:49.094Z,100633.84
2022-09-06T14:56:16.519Z,100632.81
2022-09-06T14:58:43.854Z,100641.72
2022-09-06T15:01:13.071Z,100630.78
2022-09-06T15:03:46.816Z,100621.69
2022-09-06T15:06:13.304Z,100626.09
2022-09-06T15:08:39.795Z,100628.66
2022-09-06T15:11:08.358Z,100630.34
2022-09-06T15:13:37.412Z,100622.06
2022-09-06T15:16:05.741Z,100620.22
2022-09-06T15:18:32.630Z,100624.66
2022-09-06T15:21:09.316Z,100621.03
2022-09-06T15:23:35.985Z,100608.13
2022-09-06T15:26:03.121Z,100619.69
2022-09-06T15:28:29.760Z,100622.22
2022-09-06T15:30:56.307Z,100615.81
2022-09-06T15:33:22.921Z,100615.75
2022-09-06T15:35:55.115Z,100619.41
2022-09-06T15:38:21.658Z,100617.53
2022-09-06T15:40:48.277Z,100617.44
2022-09-06T15:43:14.852Z,100611.94
2022-09-06T15:45:50.121Z,100622.56
2022-09-06T15:48:17.748Z,100612.38
2022-09-06T15:50:51.720Z,100617.50
2022-09-06T15:53:19.688Z,100609.88
2022-09-06T15:55:58.687Z,100608.41
2022-09-06T15:58:26.740Z,100612.06
2022-09-06T16:01:08.222Z,100603.56
2022-09-06T16:03:40.688Z,100609.81
2022-09-06T16:06:26.545Z,100604.69
2022-09-06T16:09:14.241Z,100607.44
2022-09-06T16:11:41.528Z,100604.78
2022-09-06T16:14:11.059Z,100616.66
2022-09-06T16:16:39.778Z,100612.22
2022-09-06T16:19:06.876Z,100601.31
2022-09-06T16:21:36.866Z,100597.34
2022-09-06T16:24:06.505Z,100602.31
2022-09-06T16:26:35.593Z,100598.19
2022-09-06T16:29:03.446Z,100605.63
2022-09-06T16:31:30.189Z,100598.34
2022-09-06T16:33:57.855Z,100593.44
2022-09-06T16:36:25.881Z,100594.19
2022-09-06T16:38:52.906Z,100593.03
2022-09-06T16:41:19.516Z,100582.63
2022-09-06T16:43:46.622Z,100585.88
2022-09-06T16:46:13.252Z,100578.41
2022-09-06T16:48:42.752Z,100582.56
2022-09-06T16:51:15.144Z,100573.75
2022-09-06T16:53:44.221Z,100576.78
2022-09-06T16:56:12.963Z,100575.22
2022-09-06T16:58:39.672Z,100578.22
2022-09-06T17:01:07.308Z,100570.59
2022-09-06T17:03:38.109Z,100569.00
2022-09-06T17:06:06.189Z,100563.78
2022-09-06T17:08:34.406Z,100567.25
2022-09-06T17:11:09.793Z,100562.16
2022-09-06T17:13:36.810Z,100564.16
2022-09-06T17:19:29.780Z,100565.41
2022-09-06T17:21:56.349Z,100556.06
2022-09-06T17:24:22.944Z,100554.66
2022-09-06T17:26:49.625Z,100561.44
2022-09-06T17:29:16.210Z,100562.53
2022-09-06T17:31:43.030Z,100557.22
2022-09-06T17:34:09.565Z,100562.75
2022-09-06T17:36:36.648Z,100565.47
2022-09-06T17:39:06.830Z,100570.91
2022-09-06T17:41:37.708Z,100568.16
2022-09-06T17:44:10.968Z,100575.28
2022-09-06T17:46:47.673Z,100584.94
2022-09-06T17:49:24.827Z,100576.56
2022-09-06T17:51:52.193Z,100587.06
2022-09-06T17:54:19.259Z,100583.16
2022-09-06T17:56:45.980Z,100594.47
2022-09-06T17:59:14.279Z,100594.06
2022-09-06T18:01:42.522Z,100590.06
2022-09-06T18:04:10.390Z,100591.44
2022-09-06T18:06:40.827Z,100589.16
2022-09-06T18:09:14.565Z,100588.69
2022-09-06T18:11:41.742Z,100598.06
2022-09-06T18:14:16.321Z,100585.84
2022-09-06T18:16:45.416Z,100598.72
2022-09-06T18:19:12.448Z,100596.38
2022-09-06T18:21:40.951Z,100600.31
2022-09-06T18:24:09.382Z,100604.16
2022-09-06T18:26:37.350Z,100605.31
2022-09-06T18:29:08.334Z,100601.09
2022-09-06T18:31:34.856Z,100604.94
2022-09-06T18:34:01.705Z,100601.59
2022-09-06T18:36:31.984Z,100603.63
2022-09-06T18:39:03.978Z,100607.41
2022-09-06T18:41:50.151Z,100617.47
2022-09-06T18:44:17.556Z,100601.56
2022-09-06T18:46:44.911Z,100608.97
2022-09-06T18:49:14.184Z,100611.88
2022-09-06T18:51:41.862Z,100614.81
2022-09-06T18:54:09.847Z,100622.13
2022-09-06T18:56:36.449Z,100617.88
2022-09-06T18:59:03.352Z,100618.97
2022-09-06T19:01:30.377Z,100625.41
2022-09-06T19:03:58.769Z,100621.13
2022-09-06T19:06:28.306Z,100625.78
2022-09-06T19:08:59.132Z,100617.00
2022-09-06T19:11:25.645Z,100627.03
2022-09-06T19:13:55.241Z,100620.00
2022-09-06T19:16:23.304Z,100619.34
2022-09-06T19:18:51.092Z,100626.66
2022-09-06T19:21:22.139Z,100618.72
2022-09-06T19:23:56.869Z,100618.91
2022-09-06T19:26:24.633Z,100621.75
2022-09-06T19:28:55.989Z,100617.50
2022-09-06T19:31:24.911Z,100613.13
2022-09-06T19:33:52.501Z,100611.50
2022-09-06T19:36:20.443Z,100613.47
2022-09-06T19:39:02.468Z,100609.09
2022-09-06T19:41:31.924Z,100605.66
2022-09-06T19:43:59.184Z,100586.91
2022-09-06T19:46:26.806Z,100580.72
2022-09-06T19:48:55.940Z,100579.91
2022-09-06T19:51:23.717Z,100580.94
2022-09-06T19:53:53.230Z,100584.63
2022-09-06T19:56:26.278Z,100582.97
2022-09-06T19:58:57.453Z,100589.31
2022-09-06T20:01:29.274Z,100589.41
2022-09-06T20:03:56.374Z,100590.41
2022-09-06T20:06:23.068Z,100586.03
2022-09-06T20:08:52.241Z,100587.09
2022-09-06T20:11:20.846Z,100583.63
2022-09-06T20:13:47.903Z,100582.88
2022-09-06T20:16:15.720Z,100587.50
2022-09-06T20:18:42.843Z,100593.03
2022-09-06T20:21:09.694Z,100590.44
2022-09-06T20:23:36.732Z,100588.75
2022-09-06T20:26:06.577Z,100581.72
2022-09-06T20:28:34.052Z,100578.19
2022-09-06T20:31:03.610Z,100571.13
2022-09-06T20:33:30.457Z,100569.44
2022-09-06T20:36:04.526Z,100567.75
2022-09-06T20:38:32.623Z,100567.84
2022-09-06T20:41:07.242Z,100572.47
2022-09-06T20:43:36.728Z,100571.72
2022-09-06T20:46:10.990Z,100572.69
2022-09-06T20:48:43.604Z,100559.31
2022-09-06T20:51:14.241Z,100553.13
2022-09-06T20:53:40.890Z,100553.19
2022-09-06T20:56:14.167Z,100542.59
2022-09-06T20:58:41.521Z,100535.47
2022-09-06T21:01:15.301Z,100527.50
2022-09-06T21:03:42.887Z,100529.34
2022-09-06T21:06:10.950Z,100536.56
2022-09-06T21:08:41.991Z,100537.56
2022-09-06T21:11:09.833Z,100531.44
2022-09-06T21:13:36.718Z,100527.00
2022-09-06T21:16:04.784Z,100533.34
2022-09-06T21:18:32.779Z,100536.09
2022-09-06T21:21:05.909Z,100534.34
2022-09-06T21:23:38.440Z,100533.50
2022-09-06T21:26:07.222Z,100537.13
2022-09-06T21:28:37.284Z,100530.91
2022-09-06T21:31:06.041Z,100527.38
2022-09-06T21:33:33.246Z,100523.84
2022-09-06T21:36:06.902Z,100519.41
2022-09-06T21:38:34.610Z,100521.25
2022-09-06T21:41:01.620Z,100519.47
2022-09-06T21:43:28.207Z,100526.66
2022-09-06T21:45:54.763Z,100526.75
2022-09-06T21:48:21.729Z,100531.31
2022-09-06T21:50:48.740Z,100526.88
2022-09-06T21:53:16.982Z,100534.13
2022-09-06T21:55:44.352Z,100538.66
2022-09-06T21:58:12.901Z,100536.03
2022-09-06T22:00:40.768Z,100535.19
2022-09-06T22:03:07.969Z,100540.63
2022-09-06T22:05:35.179Z,100540.69
2022-09-06T22:08:02.161Z,100534.50
2022-09-06T22:10:28.694Z,100536.34
2022-09-06T22:12:55.469Z,100540.81
2022-09-06T22:15:23.755Z,100540.88
2022-09-06T22:17:50.304Z,100540.91
2022-09-06T22:20:17.224Z,100541.88
2022-09-06T22:22:46.787Z,100538.38
2022-09-06T22:25:13.899Z,100535.75
2022-09-06T22:27:41.194Z,100524.13
2022-09-06T22:30:08.514Z,100517.91
2022-09-06T22:32:34.986Z,100512.59
2022-09-06T22:35:01.764Z,100518.84
2022-09-06T22:37:28.653Z,100517.06
2022-09-06T22:39:55.412Z,100523.38
2022-09-06T22:42:22.002Z,100527.88
2022-09-06T22:44:48.520Z,100524.34
2022-09-06T22:47:15.268Z,100514.56
2022-09-06T22:49:41.801Z,100512.81
2022-09-06T22:52:08.361Z,100507.47
2022-09-06T22:54:36.057Z,100504.84
2022-09-06T22:57:02.549Z,100509.34
2022-09-06T22:59:29.139Z,100512.94
2022-09-06T23:01:56.162Z,100510.31
2022-09-06T23:04:22.790Z,100501.38
2022-09-06T23:06:49.437Z,100497.00
2022-09-06T23:09:15.969Z,100490.78
2022-09-06T23:11:42.473Z,100475.69
2022-09-06T23:14:09.058Z,100479.25
2022-09-06T23:16:38.668Z,100482.88
2022-09-06T23:19:05.957Z,100477.56
2022-09-06T23:21:32.563Z,100472.25
2022-09-06T23:23:59.144Z,100466.06
2022-09-06T23:26:29.436Z,100470.59
2022-09-06T23:28:58.954Z,100462.56
2022-09-06T23:31:28.492Z,100467.06
2022-09-06T23:33:59.678Z,100468.91
2022-09-06T23:36:28.116Z,100458.22
2022-09-06T23:38:56.050Z,100451.13
2022-09-06T23:41:23.571Z,100461.91
2022-09-06T23:43:50.345Z,100464.59
2022-09-06T23:46:17.000Z,100461.09
2022-09-06T23:48:43.576Z,100458.47
2022-09-06T23:51:10.856Z,100455.84
2022-09-06T23:53:37.793Z,100450.50
2022-09-06T23:56:05.096Z,100454.06
2022-09-06T23:58:31.779Z,100442.56
